Time;durP1;ratioP1;P1;durP2;ratioP2;P2;SDS_P1;SDS_P2;PMS_P1;PMS_P2;Temp;Humidity;BMP_temperature;BMP_pressure;BME280_temperature;BME280_humidity;BME280_pressure;Samples;Min_cycle;Max_cycle;Signal;HPM_P1;HPM_P2
2023/09/30 00:02:13;;;;;;;;;;;;;;;19.42;53.51;99645.88;5091848;28;20310;-76
2023/09/30 00:04:38;;;;;;;;;;;;;;;19.39;53.43;99658.00;5072477;28;19999;-76
2023/09/30 00:07:04;;;;;;;;;;;;;;;19.59;53.13;99660.59;5074592;28;19920;-76
2023/09/30 00:09:30;;;;;;;;;;;;;;;19.63;52.72;99655.78;5091899;28;20007;-76
2023/09/30 00:11:55;;;;;;;;;;;;;;;19.64;52.80;99657.41;5089973;28;20414;-76
2023/09/30 00:14:20;;;;;;;;;;;;;;;19.66;52.67;99654.19;5084304;28;20303;-76
2023/09/30 00:16:46;;;;;;;;;;;;;;;19.82;52.34;99656.75;5091108;28;19916;-76
2023/09/30 00:19:11;;;;;;;;;;;;;;;19.88;52.13;99655.16;5086977;28;20031;-76
2023/09/30 00:21:36;;;;;;;;;;;;;;;19.99;51.94;99661.75;5090016;28;19918;-76
2023/09/30 00:24:02;;;;;;;;;;;;;;;19.91;52.07;99654.38;5090776;28;19912;-76
2023/09/30 00:26:27;;;;;;;;;;;;;;;20.13;51.68;99655.38;5091206;28;20014;-76
2023/09/30 00:28:52;;;;;;;;;;;;;;;20.12;51.93;99658.59;5089733;28;19916;-76
2023/09/30 00:31:18;;;;;;;;;;;;;;;20.17;51.78;99652.56;5087573;28;20287;-76
2023/09/30 00:33:43;;;;;;;;;;;;;;;20.22;51.82;99657.03;5091511;28;19912;-76
2023/09/30 00:36:09;;;;;;;;;;;;;;;20.28;51.41;99644.91;5083460;28;20065;-76
2023/09/30 00:38:34;;;;;;;;;;;;;;;20.24;51.40;99644.06;5083968;28;19916;-76
2023/09/30 00:40:59;;;;;;;;;;;;;;;20.26;51.23;99647.31;5071184;28;19916;-76
2023/09/30 00:43:25;;;;;;;;;;;;;;;20.33;51.05;99640.84;5071243;28;20394;-76
2023/09/30 00:46:01;;;;;;;;;;;;;;;20.31;50.94;99646.94;5078135;28;19997;-76
2023/09/30 00:48:27;;;;;;;;;;;;;;;20.36;50.83;99647.75;5076799;28;19920;-76
2023/09/30 00:50:52;;;;;;;;;;;;;;;20.53;50.80;99649.91;5091557;28;20003;-76
2023/09/30 00:53:17;;;;;;;;;;;;;;;20.59;50.37;99647.47;5091339;28;19915;-76
2023/09/30 00:55:43;;;;;;;;;;;;;;;20.69;50.18;99648.72;5072549;28;19920;-76
2023/09/30 00:58:08;;;;;;;;;;;;;;;20.73;50.08;99646.72;5071380;28;19913;-76
2023/09/30 01:00:35;;;;;;;;;;;;;;;20.74;49.93;99642.66;5073531;28;20430;-76
2023/09/30 01:03:03;;;;;;;;;;;;;;;20.83;49.83;99639.47;5081135;28;19959;-76
2023/09/30 01:05:29;;;;;;;;;;;;;;;20.81;50.25;99639.88;5093623;28;20012;-76
2023/09/30 01:07:55;;;;;;;;;;;;;;;20.93;50.22;99644.34;5094622;28;20412;-76
2023/09/30 01:10:20;;;;;;;;;;;;;;;20.97;49.91;99638.69;5094916;28;19979;-76
2023/09/30 01:12:46;;;;;;;;;;;;;;;21.03;49.38;99639.94;5094717;28;19916;-76
2023/09/30 01:15:12;;;;;;;;;;;;;;;20.59;50.17;99645.44;5094493;28;19925;-76
2023/09/30 01:17:37;;;;;;;;;;;;;;;20.68;50.20;99641.44;5090800;28;20021;-76
2023/09/30 01:20:05;;;;;;;;;;;;;;;20.80;49.61;99641.06;5090754;28;19920;-77
2023/09/30 01:22:31;;;;;;;;;;;;;;;20.78;49.27;99640.66;5087199;28;19923;-76
2023/09/30 01:24:56;;;;;;;;;;;;;;;20.87;49.15;99646.78;5072972;28;19913;-76
2023/09/30 01:27:21;;;;;;;;;;;;;;;20.93;49.06;99637.88;5073166;28;20387;-76
2023/09/30 01:29:48;;;;;;;;;;;;;;;21.00;48.84;99637.91;5088753;28;20010;-76
2023/09/30 01:32:13;;;;;;;;;;;;;;;21.11;48.78;99640.75;5090485;28;19916;-76
2023/09/30 01:34:39;;;;;;;;;;;;;;;21.16;48.48;99635.50;5074080;28;19919;-76
2023/09/30 01:37:04;;;;;;;;;;;;;;;21.20;48.08;99646.06;5074220;28;19912;-76
2023/09/30 01:39:30;;;;;;;;;;;;;;;21.16;48.29;99641.19;5074103;28;19966;-76
2023/09/30 01:41:55;;;;;;;;;;;;;;;21.14;48.53;99640.78;5073092;28;19966;-76
2023/09/30 01:44:20;;;;;;;;;;;;;;;21.19;48.16;99642.41;5073996;28;19917;-77
2023/09/30 01:46:46;;;;;;;;;;;;;;;21.10;48.39;99639.13;5081758;28;19928;-76
2023/09/30 01:49:11;;;;;;;;;;;;;;;21.03;48.93;99637.09;5073754;28;19917;-76
2023/09/30 01:51:36;;;;;;;;;;;;;;;21.03;48.83;99642.78;5073870;28;19912;-76
2023/09/30 01:54:02;;;;;;;;;;;;;;;21.07;48.90;99640.75;5075118;28;19913;-76
2023/09/30 01:56:27;;;;;;;;;;;;;;;21.09;49.01;99638.31;5093772;28;19916;-76
2023/09/30 01:58:52;;;;;;;;;;;;;;;20.98;49.35;99646.00;5093844;28;19920;-76
2023/09/30 02:01:18;;;;;;;;;;;;;;;21.05;49.36;99643.19;5086529;28;19924;-76
2023/09/30 02:03:43;;;;;;;;;;;;;;;21.03;49.55;99643.56;5077196;28;20496;-76
2023/09/30 02:06:08;;;;;;;;;;;;;;;21.05;49.89;99646.03;5073408;28;19923;-76
2023/09/30 02:08:36;;;;;;;;;;;;;;;21.02;50.01;99639.09;5072722;28;20005;-76
2023/09/30 02:11:02;;;;;;;;;;;;;;;21.00;50.09;99633.03;5081171;28;19912;-76
2023/09/30 02:13:27;;;;;;;;;;;;;;;21.00;49.91;99646.44;5073526;28;20003;-76
2023/09/30 02:15:55;;;;;;;;;;;;;;;20.95;49.96;99643.97;5073428;28;20379;-76
2023/09/30 02:18:20;;;;;;;;;;;;;;;20.92;49.83;99639.09;5088573;28;20382;-76
2023/09/30 02:20:46;;;;;;;;;;;;;;;20.92;49.75;99639.88;5091709;28;19920;-76
2023/09/30 02:23:11;;;;;;;;;;;;;;;20.79;50.10;99635.75;5091884;28;19935;-76
2023/09/30 02:25:37;;;;;;;;;;;;;;;20.78;50.26;99637.81;5093389;28;19916;-76
2023/09/30 02:28:03;;;;;;;;;;;;;;;20.70;50.51;99636.97;5093467;28;20444;-76
2023/09/30 02:30:28;;;;;;;;;;;;;;;20.74;50.42;99640.63;5089004;28;19939;-76
2023/09/30 02:32:53;;;;;;;;;;;;;;;20.76;50.31;99634.56;5092737;28;19916;-76
2023/09/30 02:35:20;;;;;;;;;;;;;;;20.78;50.52;99632.13;5093354;28;19912;-76
2023/09/30 02:37:45;;;;;;;;;;;;;;;20.84;50.83;99646.78;5091351;28;19924;-76
2023/09/30 02:40:11;;;;;;;;;;;;;;;20.75;51.03;99639.41;5092793;28;19916;-76
2023/09/30 02:42:39;;;;;;;;;;;;;;;20.80;50.83;99652.44;5093074;28;19912;-76
2023/09/30 02:45:05;;;;;;;;;;;;;;;20.66;50.57;99650.34;5093102;28;19946;-76
2023/09/30 02:47:31;;;;;;;;;;;;;;;20.51;50.77;99646.63;5092255;28;19951;-76
2023/09/30 02:49:57;;;;;;;;;;;;;;;20.58;50.56;99649.50;5091337;28;19938;-76
2023/09/30 02:52:23;;;;;;;;;;;;;;;20.58;50.44;99648.69;5076012;28;19916;-76
2023/09/30 02:54:49;;;;;;;;;;;;;;;20.57;50.85;99639.34;5073718;28;19917;-76
2023/09/30 02:57:15;;;;;;;;;;;;;;;20.61;51.30;99640.16;5072522;28;19998;-76
2023/09/30 02:59:40;;;;;;;;;;;;;;;20.68;50.93;99644.25;5071029;28;20370;-75
2023/09/30 03:02:06;;;;;;;;;;;;;;;20.66;51.39;99638.97;5082894;28;19924;-76
2023/09/30 03:04:32;;;;;;;;;;;;;;;20.61;51.32;99639.38;5091023;28;19916;-76
2023/09/30 03:06:58;;;;;;;;;;;;;;;20.61;51.48;99637.31;5083422;28;19928;-76
2023/09/30 03:09:23;;;;;;;;;;;;;;;20.66;51.30;99636.13;5072236;28;20322;-76
2023/09/30 03:11:50;;;;;;;;;;;;;;;20.62;51.63;99643.84;5080621;28;20205;-76
2023/09/30 03:14:15;;;;;;;;;;;;;;;20.57;51.65;99642.19;5088204;28;20007;-76
2023/09/30 03:16:42;;;;;;;;;;;;;;;20.42;51.75;99637.66;5072340;28;19917;-76
2023/09/30 03:19:11;;;;;;;;;;;;;;;20.12;52.22;99644.38;5072280;28;19913;-76
2023/09/30 03:21:36;;;;;;;;;;;;;;;19.96;52.88;99642.69;5073987;28;19986;-76
2023/09/30 03:24:05;;;;;;;;;;;;;;;20.10;52.70;99646.81;5090241;28;20378;-76
2023/09/30 03:26:31;;;;;;;;;;;;;;;20.22;52.47;99634.31;5072003;28;19974;-75
2023/09/30 03:28:56;;;;;;;;;;;;;;;20.08;52.31;99643.56;5070756;28;20383;-76
2023/09/30 03:31:22;;;;;;;;;;;;;;;20.14;52.34;99653.31;5076952;28;19916;-76
2023/09/30 03:33:48;;;;;;;;;;;;;;;20.09;52.27;99656.53;5071768;28;20009;-76
2023/09/30 03:36:13;;;;;;;;;;;;;;;20.12;52.18;99652.91;5088778;28;19916;-76
2023/09/30 03:38:39;;;;;;;;;;;;;;;19.96;52.56;99645.50;5092286;28;19912;-76
2023/09/30 03:41:07;;;;;;;;;;;;;;;19.90;52.88;99644.22;5090511;28;20390;-76
2023/09/30 03:43:34;;;;;;;;;;;;;;;19.73;53.85;99648.53;5082998;28;19916;-76
2023/09/30 03:46:00;;;;;;;;;;;;;;;19.43;54.56;99646.69;5071836;28;19921;-75
2023/09/30 03:48:26;;;;;;;;;;;;;;;19.12;56.05;99643.97;5072035;28;19959;-76
2023/09/30 03:50:52;;;;;;;;;;;;;;;19.15;56.18;99648.06;5091964;28;20353;-76
2023/09/30 03:53:19;;;;;;;;;;;;;;;19.25;55.95;99643.69;5090648;28;20406;-76
2023/09/30 03:55:45;;;;;;;;;;;;;;;19.23;55.64;99649.75;5075802;28;19916;-76
2023/09/30 03:58:12;;;;;;;;;;;;;;;19.31;55.49;99642.13;5082471;28;20302;-76
2023/09/30 04:00:37;;;;;;;;;;;;;;;19.43;55.49;99649.53;5090664;28;19920;-75
2023/09/30 04:03:03;;;;;;;;;;;;;;;19.46;55.07;99645.91;5086988;28;19916;-75
2023/09/30 04:05:36;;;;;;;;;;;;;;;19.45;55.56;99649.94;5088941;28;19947;-75
2023/09/30 04:08:01;;;;;;;;;;;;;;;19.35;55.45;99646.63;5091258;28;19973;-75
2023/09/30 04:10:27;;;;;;;;;;;;;;;19.36;55.55;99647.44;5086247;28;19916;-75
2023/09/30 04:12:52;;;;;;;;;;;;;;;19.44;55.80;99645.47;5076308;28;19951;-75
2023/09/30 04:15:18;;;;;;;;;;;;;;;19.39;56.78;99643.81;5079233;28;20375;-75
2023/09/30 04:17:43;;;;;;;;;;;;;;;19.40;57.40;99639.78;5080217;28;19923;-75
2023/09/30 04:20:10;;;;;;;;;;;;;;;19.38;57.61;99647.88;5086612;28;19916;-76
2023/09/30 04:22:36;;;;;;;;;;;;;;;19.34;57.71;99649.84;5085475;28;19966;-77
2023/09/30 04:25:05;;;;;;;;;;;;;;;19.14;58.07;99644.41;5088302;28;19920;-75
2023/09/30 04:27:31;;;;;;;;;;;;;;;19.22;57.26;99657.44;5085543;28;19951;-76
2023/09/30 04:29:56;;;;;;;;;;;;;;;18.90;58.61;99660.72;5079081;28;19967;-76
2023/09/30 04:32:21;;;;;;;;;;;;;;;19.01;58.58;99665.72;5077484;28;19916;-74
2023/09/30 04:34:47;;;;;;;;;;;;;;;19.13;58.02;99668.28;5077900;28;20405;-76
2023/09/30 04:37:15;;;;;;;;;;;;;;;19.06;58.21;99663.34;5084188;28;19920;-76
2023/09/30 04:39:40;;;;;;;;;;;;;;;19.06;57.79;99665.34;5075287;28;20306;-74
2023/09/30 04:42:10;;;;;;;;;;;;;;;19.00;57.97;99667.72;5092713;28;19920;-74
2023/09/30 04:44:37;;;;;;;;;;;;;;;19.09;57.42;99667.44;5089363;28;19920;-75
2023/09/30 04:47:03;;;;;;;;;;;;;;;19.15;56.76;99668.69;5085271;28;19963;-74
2023/09/30 04:49:29;;;;;;;;;;;;;;;19.27;55.93;99672.47;5093520;28;20322;-75
2023/09/30 04:51:54;;;;;;;;;;;;;;;19.32;55.50;99675.75;5095154;28;19912;-76
2023/09/30 04:54:21;;;;;;;;;;;;;;;19.36;55.14;99672.97;5095358;28;20030;-76
2023/09/30 04:56:47;;;;;;;;;;;;;;;19.44;54.99;99674.66;5080473;28;19927;-76
2023/09/30 04:59:12;;;;;;;;;;;;;;;19.45;54.43;99683.97;5080346;28;19916;-76
2023/09/30 05:01:37;;;;;;;;;;;;;;;19.49;53.58;99688.47;5074669;28;19920;-76
2023/09/30 05:04:03;;;;;;;;;;;;;;;19.40;53.67;99690.81;5075141;28;19923;-76
2023/09/30 05:06:28;;;;;;;;;;;;;;;19.22;54.41;99685.81;5092459;28;19924;-75
2023/09/30 05:08:55;;;;;;;;;;;;;;;19.39;54.17;99689.19;5095123;28;19916;-75
2023/09/30 05:11:20;;;;;;;;;;;;;;;19.38;53.89;99690.41;5087673;28;20007;-75
2023/09/30 05:13:45;;;;;;;;;;;;;;;19.31;54.46;99690.34;5080566;28;20391;-76
2023/09/30 05:16:13;;;;;;;;;;;;;;;19.32;54.57;99691.97;5091058;28;19923;-73
2023/09/30 05:18:38;;;;;;;;;;;;;;;19.40;54.62;99684.34;5094838;28;19939;-74
2023/09/30 05:21:03;;;;;;;;;;;;;;;19.45;54.19;99695.31;5084919;28;19916;-74
2023/09/30 05:23:28;;;;;;;;;;;;;;;19.57;54.11;99686.53;5089987;28;19916;-75
2023/09/30 05:25:54;;;;;;;;;;;;;;;19.62;54.06;99691.03;5086881;28;20395;-74
2023/09/30 05:28:22;;;;;;;;;;;;;;;19.67;54.69;99681.34;5087917;28;19973;-74
2023/09/30 05:30:47;;;;;;;;;;;;;;;19.77;54.36;99689.94;5088197;28;19916;-75
2023/09/30 05:33:14;;;;;;;;;;;;;;;19.93;53.52;99683.22;5081117;28;20319;-74
2023/09/30 05:35:42;;;;;;;;;;;;;;;19.80;53.56;99696.84;5094342;28;20405;-74
2023/09/30 05:38:08;;;;;;;;;;;;;;;19.86;53.88;99695.28;5080444;28;20015;-74
2023/09/30 05:40:33;;;;;;;;;;;;;;;20.10;53.50;99697.91;5074259;28;20013;-73
2023/09/30 05:42:59;;;;;;;;;;;;;;;20.18;52.75;99705.28;5073609;28;20441;-74
2023/09/30 05:45:26;;;;;;;;;;;;;;;20.12;52.54;99702.00;5073345;28;19928;-74
2023/09/30 05:47:52;;;;;;;;;;;;;;;20.20;52.33;99700.03;5074732;28;19919;-75
2023/09/30 05:50:20;;;;;;;;;;;;;;;20.13;52.25;99699.97;5089983;28;20467;-72
2023/09/30 05:52:45;;;;;;;;;;;;;;;20.03;53.17;99701.53;5094015;28;20375;-73
2023/09/30 05:55:11;;;;;;;;;;;;;;;20.03;53.25;99704.38;5093972;28;20007;-70
2023/09/30 05:57:36;;;;;;;;;;;;;;;19.97;52.07;99700.25;5093766;28;19916;-74
2023/09/30 06:00:20;;;;;;;;;;;;;;;19.83;51.75;99689.59;5091870;28;20291;-77
2023/09/30 06:02:46;;;;;;;;;;;;;;;19.79;52.32;99698.06;5093748;28;19958;-73
2023/09/30 06:05:11;;;;;;;;;;;;;;;19.96;51.70;99698.63;5092026;28;20322;-75
2023/09/30 06:07:37;;;;;;;;;;;;;;;20.15;50.80;99706.06;5074922;28;19920;-76
2023/09/30 06:10:03;;;;;;;;;;;;;;;20.20;51.41;99705.69;5068448;28;19916;-74
2023/09/30 06:12:28;;;;;;;;;;;;;;;20.25;51.06;99707.34;5076903;28;19920;-76
2023/09/30 06:14:53;;;;;;;;;;;;;;;20.32;50.27;99702.53;5071000;28;19919;-78
2023/09/30 06:17:22;;;;;;;;;;;;;;;20.43;50.31;99708.25;5070640;28;19917;-75
2023/09/30 06:19:49;;;;;;;;;;;;;;;20.66;49.71;99714.91;5084366;28;19977;-77
2023/09/30 06:22:14;;;;;;;;;;;;;;;20.86;49.20;99719.06;5077184;28;19922;-76
2023/09/30 06:24:39;;;;;;;;;;;;;;;20.79;49.17;99713.34;5088311;28;20011;-74
2023/09/30 06:27:05;;;;;;;;;;;;;;;20.96;48.82;99722.34;5087540;28;19923;-74
2023/09/30 06:29:31;;;;;;;;;;;;;;;20.47;48.21;99719.66;5079838;28;19920;-73
2023/09/30 06:31:56;;;;;;;;;;;;;;;20.62;48.48;99724.19;5084832;28;19931;-75
2023/09/30 06:34:21;;;;;;;;;;;;;;;20.90;47.77;99727.59;5077989;28;19920;-73
2023/09/30 06:36:47;;;;;;;;;;;;;;;20.69;48.00;99714.88;5084615;28;19981;-73
2023/09/30 06:39:12;;;;;;;;;;;;;;;20.46;48.38;99726.56;5070756;28;19928;-74
2023/09/30 06:41:39;;;;;;;;;;;;;;;20.66;47.81;99726.25;5089709;28;19920;-72
2023/09/30 06:44:04;;;;;;;;;;;;;;;20.66;47.61;99726.25;5083410;28;20298;-74
2023/09/30 06:46:30;;;;;;;;;;;;;;;20.68;47.68;99732.34;5093449;28;20654;-73
2023/09/30 06:48:56;;;;;;;;;;;;;;;20.85;47.52;99725.97;5091748;28;19974;-74
2023/09/30 06:51:21;;;;;;;;;;;;;;;21.16;47.06;99726.50;5095655;28;19921;-72
2023/09/30 06:53:46;;;;;;;;;;;;;;;21.30;46.73;99730.59;5101282;28;19935;-74
2023/09/30 06:56:12;;;;;;;;;;;;;;;21.55;46.27;99732.66;5076204;28;19917;-73
2023/09/30 06:58:38;;;;;;;;;;;;;;;21.60;46.10;99732.28;5101671;28;19919;-73
2023/09/30 07:01:03;;;;;;;;;;;;;;;21.39;46.51;99727.34;5104850;28;19920;-73
2023/09/30 07:03:30;;;;;;;;;;;;;;;21.35;46.52;99721.66;5101375;28;19923;-73
2023/09/30 07:05:56;;;;;;;;;;;;;;;21.52;46.03;99728.59;5105579;28;19954;-74
2023/09/30 07:08:22;;;;;;;;;;;;;;;21.53;45.81;99718.03;5094545;28;20298;-73
2023/09/30 07:10:49;;;;;;;;;;;;;;;21.58;45.72;99711.94;5104895;28;19922;-74
2023/09/30 07:13:15;;;;;;;;;;;;;;;21.79;45.11;99722.56;5077178;28;19917;-69
2023/09/30 07:15:40;;;;;;;;;;;;;;;21.77;45.35;99719.28;5075922;28;19986;-72
2023/09/30 07:18:06;;;;;;;;;;;;;;;21.86;45.24;99722.56;5076591;28;19926;-73
2023/09/30 07:20:32;;;;;;;;;;;;;;;21.78;45.79;99720.94;5104211;28;20364;-73
2023/09/30 07:22:58;;;;;;;;;;;;;;;21.86;45.56;99716.88;5099034;28;20018;-74
2023/09/30 07:25:24;;;;;;;;;;;;;;;22.10;45.01;99713.63;5102110;28;19915;-74
2023/09/30 07:27:49;;;;;;;;;;;;;;;22.21;45.52;99710.75;5092195;28;20405;-73
2023/09/30 07:30:17;;;;;;;;;;;;;;;22.41;45.31;99714.78;5099024;28;19979;-79
2023/09/30 07:32:43;;;;;;;;;;;;;;;22.77;44.97;99716.72;5080693;28;19912;-81
2023/09/30 07:35:08;;;;;;;;;;;;;;;22.90;43.79;99719.13;5104229;28;19912;-76
2023/09/30 07:37:34;;;;;;;;;;;;;;;23.22;43.14;99723.88;5096857;28;19919;-73
2023/09/30 07:39:59;;;;;;;;;;;;;;;23.25;42.92;99718.13;5092255;28;19916;-77
2023/09/30 07:42:24;;;;;;;;;;;;;;;23.16;43.05;99719.81;5090870;28;20034;-71
2023/09/30 07:44:50;;;;;;;;;;;;;;;23.49;42.80;99720.47;5104314;28;19935;-73
2023/09/30 07:47:15;;;;;;;;;;;;;;;23.66;41.90;99710.97;5086020;28;20338;-74
2023/09/30 07:49:40;;;;;;;;;;;;;;;23.53;41.90;99716.34;5083043;28;19916;-80
2023/09/30 07:52:06;;;;;;;;;;;;;;;23.98;41.08;99711.94;5083342;28;20381;-79
2023/09/30 07:54:31;;;;;;;;;;;;;;;24.09;40.07;99720.44;5111065;28;19916;-79
2023/09/30 07:56:57;;;;;;;;;;;;;;;24.21;41.11;99711.34;5096622;28;19916;-80
2023/09/30 07:59:23;;;;;;;;;;;;;;;24.43;39.83;99716.84;5094093;28;19916;-76
2023/09/30 08:01:48;;;;;;;;;;;;;;;24.63;38.91;99710.50;5080767;28;19920;-75
2023/09/30 08:04:14;;;;;;;;;;;;;;;24.88;38.86;99704.50;5073983;28;19955;-75
2023/09/30 08:06:39;;;;;;;;;;;;;;;24.99;38.18;99712.13;5086188;28;19920;-75
2023/09/30 08:09:09;;;;;;;;;;;;;;;25.04;38.67;99715.31;5083603;28;20016;-76
2023/09/30 08:11:36;;;;;;;;;;;;;;;25.27;37.33;99713.78;5100160;28;20581;-75
2023/09/30 08:14:06;;;;;;;;;;;;;;;25.52;35.76;99718.38;5091879;28;19939;-76
2023/09/30 08:16:31;;;;;;;;;;;;;;;25.54;35.20;99723.66;5097483;28;20022;-74
2023/09/30 08:18:56;;;;;;;;;;;;;;;25.55;35.02;99722.41;5084546;28;20003;-76
2023/09/30 08:21:22;;;;;;;;;;;;;;;25.64;34.02;99716.94;5075736;28;20633;-76
2023/09/30 08:23:47;;;;;;;;;;;;;;;25.88;33.46;99714.09;5098384;28;19916;-77
2023/09/30 08:26:12;;;;;;;;;;;;;;;25.67;33.17;99718.97;5081788;28;20441;-74
2023/09/30 08:28:38;;;;;;;;;;;;;;;25.84;33.52;99719.09;5106402;28;19968;-86
2023/09/30 08:31:04;;;;;;;;;;;;;;;26.07;32.76;99713.38;5107466;28;19957;-86
2023/09/30 08:33:30;;;;;;;;;;;;;;;26.04;31.93;99714.25;5108454;28;20401;-86
2023/09/30 08:35:56;;;;;;;;;;;;;;;26.04;32.00;99710.56;5110328;28;19915;-86
2023/09/30 08:38:22;;;;;;;;;;;;;;;25.84;31.91;99707.63;5090713;28;19928;-80
2023/09/30 08:40:48;;;;;;;;;;;;;;;25.91;31.90;99714.03;5102500;28;20002;-86
2023/09/30 08:43:15;;;;;;;;;;;;;;;26.31;31.14;99704.78;5106838;28;20006;-86
2023/09/30 08:45:43;;;;;;;;;;;;;;;26.44;30.78;99707.81;5096625;28;20016;-75
2023/09/30 08:48:09;;;;;;;;;;;;;;;26.56;30.74;99702.69;5110145;28;19916;-78
2023/09/30 08:50:35;;;;;;;;;;;;;;;26.42;30.49;99698.81;5088962;28;20291;-76
2023/09/30 08:53:03;;;;;;;;;;;;;;;26.36;30.75;99694.88;5091085;28;19917;-77
2023/09/30 08:55:29;;;;;;;;;;;;;;;26.61;30.24;99693.56;5098679;28;20005;-77
2023/09/30 08:57:55;;;;;;;;;;;;;;;26.70;30.93;99693.78;5102653;28;19942;-77
2023/09/30 09:00:21;;;;;;;;;;;;;;;26.93;30.20;99686.38;5104849;28;19920;-77
2023/09/30 09:02:46;;;;;;;;;;;;;;;27.21;30.09;99689.88;5112331;28;19916;-77
2023/09/30 09:05:12;;;;;;;;;;;;;;;27.45;30.05;99686.84;5090043;28;19917;-77
2023/09/30 09:07:37;;;;;;;;;;;;;;;26.98;29.17;99682.97;5089509;28;19917;-77
2023/09/30 09:10:06;;;;;;;;;;;;;;;26.78;29.22;99695.25;5101011;28;20014;-77
2023/09/30 09:12:36;;;;;;;;;;;;;;;26.89;30.37;99692.19;5099401;28;19973;-76
2023/09/30 09:15:02;;;;;;;;;;;;;;;27.15;29.67;99691.63;5081888;28;20305;-81
2023/09/30 09:17:41;;;;;;;;;;;;;;;27.35;29.97;99687.91;5096333;28;19930;-81
2023/09/30 09:20:09;;;;;;;;;;;;;;;27.65;29.30;99677.41;5080253;28;19931;-78
2023/09/30 09:22:38;;;;;;;;;;;;;;;27.58;29.08;99684.13;5085727;28;19925;-79
2023/09/30 09:25:07;;;;;;;;;;;;;;;27.77;29.09;99675.84;5086671;28;19916;-80
2023/09/30 09:27:38;;;;;;;;;;;;;;;27.47;28.60;99667.94;5098290;28;20428;-81
2023/09/30 09:30:23;;;;;;;;;;;;;;;27.05;28.51;99674.22;5072105;28;19955;-81
2023/09/30 09:32:58;;;;;;;;;;;;;;;27.05;29.15;99677.09;5084487;28;19916;-79
2023/09/30 09:35:28;;;;;;;;;;;;;;;26.96;28.54;99668.28;5083686;28;19970;-81
2023/09/30 09:37:58;;;;;;;;;;;;;;;27.28;28.71;99674.53;5073892;28;20339;-79
2023/09/30 09:40:25;;;;;;;;;;;;;;;27.80;28.05;99672.91;5093944;28;20387;-76
2023/09/30 09:42:53;;;;;;;;;;;;;;;27.86;27.42;99673.97;5088886;28;19979;-79
2023/09/30 09:45:20;;;;;;;;;;;;;;;27.84;27.04;99676.47;5086339;28;19916;-75
2023/09/30 09:47:46;;;;;;;;;;;;;;;27.38;26.68;99666.91;5091129;28;19939;-72
2023/09/30 09:50:13;;;;;;;;;;;;;;;27.63;27.15;99662.66;5087060;28;20318;-73
2023/09/30 09:52:39;;;;;;;;;;;;;;;27.87;26.77;99669.03;5106447;28;20356;-77
2023/09/30 09:55:06;;;;;;;;;;;;;;;27.71;26.02;99664.09;5082070;28;19932;-76
2023/09/30 09:57:31;;;;;;;;;;;;;;;28.10;26.71;99649.97;5101386;28;19927;-78
2023/09/30 09:59:58;;;;;;;;;;;;;;;28.47;25.87;99658.41;5092047;28;19920;-78
2023/09/30 10:02:24;;;;;;;;;;;;;;;28.68;26.15;99654.91;5109233;28;20413;-79
2023/09/30 10:04:50;;;;;;;;;;;;;;;28.98;25.43;99643.38;5083298;28;19965;-82
2023/09/30 10:07:18;;;;;;;;;;;;;;;29.02;24.55;99649.03;5089500;28;20364;-80
2023/09/30 10:09:46;;;;;;;;;;;;;;;28.49;24.28;99644.41;5087695;28;19916;-82
2023/09/30 10:12:11;;;;;;;;;;;;;;;27.96;25.20;99634.72;5099909;28;19920;-78
2023/09/30 10:14:37;;;;;;;;;;;;;;;27.37;25.19;99642.31;5097445;28;19923;-75
2023/09/30 10:17:03;;;;;;;;;;;;;;;27.55;24.61;99634.13;5088565;28;20314;-76
2023/09/30 10:19:30;;;;;;;;;;;;;;;27.47;24.99;99629.78;5091274;28;20354;-76
2023/09/30 10:22:14;;;;;;;;;;;;;;;28.06;24.92;99623.38;5090389;28;19922;-77
2023/09/30 10:24:39;;;;;;;;;;;;;;;28.00;24.46;99628.88;5079993;28;19927;-77
2023/09/30 10:27:23;;;;;;;;;;;;;;;28.40;24.15;99622.84;5089478;28;19920;-77
2023/09/30 10:29:54;;;;;;;;;;;;;;;28.66;23.57;99622.91;5096777;28;19946;-77
2023/09/30 10:32:19;;;;;;;;;;;;;;;28.85;23.25;99614.59;5080279;28;19923;-77
2023/09/30 10:34:49;;;;;;;;;;;;;;;28.94;22.69;99616.78;5082279;28;19927;-77
2023/09/30 10:37:21;;;;;;;;;;;;;;;29.35;22.72;99615.03;5081153;28;19988;-77
2023/09/30 10:39:54;;;;;;;;;;;;;;;29.55;22.96;99611.94;5087458;28;20015;-77
2023/09/30 10:42:37;;;;;;;;;;;;;;;29.63;22.94;99618.28;5095230;28;20067;-77
2023/09/30 10:45:04;;;;;;;;;;;;;;;29.41;23.11;99598.00;5091689;28;19938;-78
2023/09/30 10:47:30;;;;;;;;;;;;;;;29.58;23.16;99592.13;5076680;28;20406;-77
2023/09/30 10:49:56;;;;;;;;;;;;;;;29.96;22.67;99596.97;5081624;28;20010;-78
2023/09/30 10:52:25;;;;;;;;;;;;;;;29.49;22.27;99602.28;5080669;28;20009;-77
2023/09/30 10:54:51;;;;;;;;;;;;;;;29.59;22.92;99593.75;5099042;28;20302;-77
2023/09/30 10:57:37;;;;;;;;;;;;;;;29.67;22.68;99593.03;5091890;28;19927;-78
2023/09/30 11:00:12;;;;;;;;;;;;;;;29.62;23.02;99587.03;5093418;28;19973;-77
2023/09/30 11:02:51;;;;;;;;;;;;;;;29.45;23.26;99587.22;5075739;28;19916;-77
2023/09/30 11:05:16;;;;;;;;;;;;;;;29.62;23.56;99582.06;5085070;28;19923;-77
2023/09/30 11:07:43;;;;;;;;;;;;;;;29.31;22.51;99579.00;5081241;28;19943;-77
2023/09/30 11:10:09;;;;;;;;;;;;;;;29.54;23.65;99575.75;5101439;28;19977;-77
2023/09/30 11:12:34;;;;;;;;;;;;;;;29.76;23.02;99580.78;5095538;28;20359;-77
2023/09/30 11:15:01;;;;;;;;;;;;;;;29.80;22.02;99569.91;5094163;28;19916;-78
2023/09/30 11:17:26;;;;;;;;;;;;;;;30.21;22.55;99570.13;5085803;28;20568;-75
2023/09/30 11:19:52;;;;;;;;;;;;;;;30.23;22.21;99569.66;5095048;28;20489;-74
2023/09/30 11:22:18;;;;;;;;;;;;;;;29.40;21.66;99576.22;5082083;28;19923;-74
2023/09/30 11:24:43;;;;;;;;;;;;;;;29.98;20.96;99566.38;5078730;28;20291;-74
2023/09/30 11:27:09;;;;;;;;;;;;;;;30.25;20.84;99562.16;5087854;28;19924;-74
2023/09/30 11:29:34;;;;;;;;;;;;;;;30.62;21.45;99561.56;5080937;28;20314;-74
2023/09/30 11:32:01;;;;;;;;;;;;;;;30.94;20.87;99555.81;5079286;28;19974;-74
2023/09/30 11:34:33;;;;;;;;;;;;;;;30.96;20.93;99551.19;5084071;28;20002;-74
2023/09/30 11:37:00;;;;;;;;;;;;;;;31.06;21.01;99549.13;5089330;28;19922;-74
2023/09/30 11:39:27;;;;;;;;;;;;;;;31.06;20.63;99549.13;5085234;28;19924;-74
2023/09/30 11:41:52;;;;;;;;;;;;;;;31.00;20.83;99541.56;5077838;28;19939;-74
2023/09/30 11:44:18;;;;;;;;;;;;;;;31.07;20.52;99541.28;5082934;28;19916;-74
2023/09/30 11:46:55;;;;;;;;;;;;;;;31.12;20.71;99537.75;5084399;28;19920;-74
2023/09/30 11:49:24;;;;;;;;;;;;;;;31.41;20.52;99535.78;5082270;28;20362;-75
2023/09/30 11:51:49;;;;;;;;;;;;;;;31.52;21.18;99536.94;5080651;28;19974;-74
2023/09/30 11:54:16;;;;;;;;;;;;;;;30.93;21.22;99534.81;5087781;28;20353;-74
2023/09/30 11:56:41;;;;;;;;;;;;;;;30.95;21.32;99532.25;5083918;28;19941;-74
2023/09/30 11:59:10;;;;;;;;;;;;;;;30.86;21.10;99526.44;5078284;28;19923;-74
2023/09/30 12:01:35;;;;;;;;;;;;;;;31.05;20.87;99532.28;5092103;28;20129;-74
2023/09/30 12:04:00;;;;;;;;;;;;;;;31.00;21.22;99524.25;5087274;28;20474;-75
2023/09/30 12:06:26;;;;;;;;;;;;;;;31.14;20.61;99523.66;5089030;28;19924;-74
2023/09/30 12:08:51;;;;;;;;;;;;;;;30.98;20.81;99521.03;5093043;28;19956;-74
2023/09/30 12:11:17;;;;;;;;;;;;;;;30.54;20.56;99522.75;5086530;28;20464;-74
2023/09/30 12:13:44;;;;;;;;;;;;;;;30.84;20.73;99511.69;5087723;28;19935;-74
2023/09/30 12:16:09;;;;;;;;;;;;;;;31.03;20.73;99518.31;5084401;28;19928;-74
2023/09/30 12:18:38;;;;;;;;;;;;;;;30.76;21.01;99511.19;5084248;28;20390;-74
2023/09/30 12:21:04;;;;;;;;;;;;;;;31.01;20.68;99505.63;5082365;28;19916;-75
2023/09/30 12:23:29;;;;;;;;;;;;;;;31.27;19.84;99496.78;5087652;28;20287;-75
2023/09/30 12:25:54;;;;;;;;;;;;;;;30.56;20.80;99494.22;5076733;28;19920;-74
2023/09/30 12:28:20;;;;;;;;;;;;;;;30.21;21.14;99495.16;5076339;28;19916;-74
2023/09/30 12:30:46;;;;;;;;;;;;;;;30.78;21.07;99484.75;5075312;28;19936;-72
2023/09/30 12:33:11;;;;;;;;;;;;;;;30.89;20.93;99484.28;5088975;28;20295;-75
2023/09/30 12:35:37;;;;;;;;;;;;;;;31.06;20.64;99487.69;5072996;28;19931;-75
2023/09/30 12:38:02;;;;;;;;;;;;;;;31.03;20.39;99486.56;5097943;28;20390;-74
2023/09/30 12:40:29;;;;;;;;;;;;;;;30.96;20.64;99479.00;5088134;28;19979;-74
2023/09/30 12:42:54;;;;;;;;;;;;;;;31.04;20.02;99485.28;5093949;28;20006;-77
2023/09/30 12:45:19;;;;;;;;;;;;;;;31.30;20.09;99475.59;5092008;28;19997;-76